createdAt,value
2023-02-15T00:02:01.402Z,37.28
2023-02-15T00:05:00.764Z,39.42
2023-02-15T00:07:27.923Z,39.20
2023-02-15T00:09:54.889Z,39.33
2023-02-15T00:12:21.785Z,38.72
2023-02-15T00:14:49.090Z,39.33
2023-02-15T00:17:16.036Z,38.63
2023-02-15T00:19:43.047Z,39.88
2023-02-15T00:22:10.277Z,38.78
2023-02-15T00:24:37.207Z,39.78
2023-02-15T00:27:04.197Z,38.42
2023-02-15T00:29:31.204Z,40.10
2023-02-15T00:31:58.179Z,40.33
2023-02-15T00:34:27.832Z,39.25
2023-02-15T00:36:57.498Z,39.90
2023-02-15T00:39:25.357Z,37.53
2023-02-15T00:41:52.260Z,37.70
2023-02-15T00:44:19.277Z,40.47
2023-02-15T00:46:46.283Z,37.75
2023-02-15T00:49:13.237Z,38.50
2023-02-15T00:51:40.489Z,37.70
2023-02-15T00:54:07.695Z,37.72
2023-02-15T00:56:34.860Z,36.72
2023-02-15T00:59:02.061Z,36.38
2023-02-15T01:01:29.077Z,33.80
2023-02-15T01:03:56.149Z,35.03
2023-02-15T01:06:23.177Z,37.45
2023-02-15T01:08:50.105Z,34.08
2023-02-15T01:11:23.250Z,34.08
2023-02-15T01:13:57.089Z,33.13
2023-02-15T01:16:26.103Z,33.90
2023-02-15T01:18:53.432Z,35.30
2023-02-15T01:21:23.110Z,37.22
2023-02-15T01:23:50.621Z,36.55
2023-02-15T01:26:18.011Z,35.65
2023-02-15T01:28:45.698Z,35.92
2023-02-15T01:31:16.186Z,32.63
2023-02-15T01:33:46.967Z,33.63
2023-02-15T01:36:14.431Z,34.38
2023-02-15T01:38:42.347Z,32.53
2023-02-15T01:41:23.841Z,34.28
2023-02-15T01:43:54.733Z,32.75
2023-02-15T01:46:26.990Z,34.70
2023-02-15T01:48:59.423Z,31.88
2023-02-15T01:51:30.571Z,33.13
2023-02-15T01:54:16.274Z,33.65
2023-02-15T01:56:43.352Z,30.48
2023-02-15T01:59:15.891Z,31.75
2023-02-15T02:01:44.324Z,32.28
2023-02-15T02:04:49.566Z,28.05
2023-02-15T02:07:21.851Z,29.88
2023-02-15T02:09:49.349Z,29.25
2023-02-15T02:12:18.975Z,31.00
2023-02-15T02:14:48.315Z,27.60
2023-02-15T02:17:24.384Z,27.45
2023-02-15T02:19:57.770Z,27.05
2023-02-15T02:22:45.907Z,27.40
2023-02-15T02:25:25.127Z,27.50
2023-02-15T02:28:10.926Z,26.20
2023-02-15T02:30:43.855Z,28.65
2023-02-15T02:33:21.321Z,25.48
2023-02-15T02:36:13.504Z,25.88
2023-02-15T02:38:58.584Z,26.52
2023-02-15T02:41:57.329Z,25.20
2023-02-15T02:44:28.845Z,25.08
2023-02-15T02:46:58.844Z,24.33
2023-02-15T02:49:37.381Z,23.08
2023-02-15T02:52:07.721Z,24.90
2023-02-15T02:54:37.035Z,23.75
2023-02-15T02:57:10.115Z,24.02
2023-02-15T02:59:45.120Z,24.05
2023-02-15T03:02:17.030Z,24.63
2023-02-15T03:04:50.496Z,24.75
2023-02-15T03:07:23.034Z,25.88
2023-02-15T03:09:54.080Z,25.27
2023-02-15T03:12:25.683Z,24.13
2023-02-15T03:15:03.333Z,23.80
2023-02-15T03:17:34.619Z,24.65
2023-02-15T03:20:09.689Z,24.10
2023-02-15T03:22:59.907Z,22.67
2023-02-15T03:25:38.974Z,23.42
2023-02-15T03:28:13.923Z,20.27
2023-02-15T03:30:44.556Z,21.10
2023-02-15T03:33:14.084Z,22.30
2023-02-15T03:35:51.007Z,21.38
2023-02-15T03:38:24.123Z,21.75
2023-02-15T03:41:12.994Z,22.45
2023-02-15T03:43:39.925Z,20.50
2023-02-15T03:46:14.402Z,19.08
2023-02-15T03:48:45.855Z,20.75
2023-02-15T03:51:34.727Z,20.98
2023-02-15T03:54:44.083Z,21.00
2023-02-15T03:57:33.293Z,20.40
2023-02-15T04:00:20.448Z,23.42
2023-02-15T04:03:06.226Z,22.38
2023-02-15T04:05:33.227Z,26.13
2023-02-15T04:08:00.210Z,25.33
2023-02-15T04:10:46.608Z,24.20
2023-02-15T04:13:13.654Z,24.55
2023-02-15T04:15:59.423Z,22.60
2023-02-15T04:18:45.431Z,21.17
2023-02-15T04:21:30.872Z,20.55
2023-02-15T04:24:16.316Z,20.35
2023-02-15T04:26:43.291Z,20.83
2023-02-15T04:29:10.222Z,21.20
2023-02-15T04:31:37.413Z,20.75
2023-02-15T04:34:04.498Z,23.20
2023-02-15T04:36:31.519Z,19.75
2023-02-15T04:38:58.503Z,20.23
2023-02-15T04:41:25.449Z,21.88
2023-02-15T04:43:52.357Z,20.50
2023-02-15T04:46:19.402Z,22.25
2023-02-15T04:48:46.483Z,21.08
2023-02-15T04:51:13.395Z,20.67
2023-02-15T04:53:40.352Z,20.98
2023-02-15T04:56:07.287Z,20.20
2023-02-15T04:58:34.390Z,22.08
2023-02-15T05:01:01.527Z,21.73
2023-02-15T05:03:28.500Z,20.75
2023-02-15T05:05:55.638Z,22.75
2023-02-15T05:08:22.642Z,20.88
2023-02-15T05:10:50.062Z,23.45
2023-02-15T05:13:17.062Z,20.50
2023-02-15T05:15:51.759Z,22.40
2023-02-15T05:18:20.196Z,22.17
2023-02-15T05:20:47.703Z,21.95
2023-02-15T05:23:14.947Z,21.42
2023-02-15T05:26:00.724Z,21.00
2023-02-15T05:28:28.983Z,21.92
2023-02-15T05:31:10.356Z,23.08
2023-02-15T05:33:37.692Z,23.27
2023-02-15T05:36:05.850Z,23.75
2023-02-15T05:38:33.717Z,24.25
2023-02-15T05:41:00.835Z,24.10
2023-02-15T05:43:28.030Z,24.75
2023-02-15T05:45:56.038Z,24.20
2023-02-15T05:48:26.862Z,24.58
2023-02-15T05:51:15.026Z,24.25
2023-02-15T05:53:42.067Z,23.90
2023-02-15T05:56:11.263Z,25.52
2023-02-15T05:58:40.518Z,24.45
2023-02-15T06:01:15.876Z,24.25
2023-02-15T06:03:43.176Z,24.02
2023-02-15T06:06:10.573Z,25.08
2023-02-15T06:08:38.736Z,24.48
2023-02-15T06:11:06.355Z,24.77
2023-02-15T06:13:37.898Z,22.67
2023-02-15T06:16:05.951Z,24.95
2023-02-15T06:18:33.094Z,25.90
2023-02-15T06:21:00.091Z,22.95
2023-02-15T06:23:27.103Z,24.35
2023-02-15T06:25:54.109Z,23.73
2023-02-15T06:28:21.120Z,25.20
2023-02-15T06:30:48.257Z,26.58
2023-02-15T06:33:15.326Z,25.75
2023-02-15T06:35:42.422Z,23.10
2023-02-15T06:38:09.437Z,24.08
2023-02-15T06:40:36.367Z,23.73
2023-02-15T06:43:03.326Z,25.27
2023-02-15T06:45:30.557Z,23.30
2023-02-15T06:47:57.526Z,25.58
2023-02-15T06:50:24.473Z,24.65
2023-02-15T06:52:57.009Z,23.95
2023-02-15T06:55:24.029Z,24.80
2023-02-15T06:57:51.223Z,24.45
2023-02-15T07:00:19.320Z,24.90
2023-02-15T07:02:46.413Z,25.92
2023-02-15T07:05:13.541Z,25.83
2023-02-15T07:07:40.712Z,23.90
2023-02-15T07:10:07.996Z,24.83
2023-02-15T07:12:43.857Z,23.38
2023-02-15T07:17:38.919Z,24.55
2023-02-15T07:20:12.766Z,23.70
2023-02-15T07:22:39.886Z,25.27
2023-02-15T07:25:09.575Z,25.20
2023-02-15T07:27:37.143Z,23.27
2023-02-15T07:30:05.997Z,24.15
2023-02-15T07:32:34.067Z,25.08
2023-02-15T07:35:01.364Z,23.08
2023-02-15T07:37:29.237Z,26.67
2023-02-15T07:39:56.205Z,26.02
2023-02-15T07:42:23.292Z,26.65
2023-02-15T07:44:50.425Z,25.02
2023-02-15T07:47:17.658Z,25.65
2023-02-15T07:49:45.899Z,26.38
2023-02-15T07:52:12.909Z,27.00
2023-02-15T07:54:39.845Z,26.23
2023-02-15T07:57:06.834Z,26.77
2023-02-15T07:59:33.813Z,24.60
2023-02-15T08:02:00.837Z,25.75
2023-02-15T08:04:27.811Z,23.90
2023-02-15T08:06:55.748Z,21.42
2023-02-15T08:09:23.194Z,22.23
2023-02-15T08:11:50.380Z,23.50
2023-02-15T08:14:19.612Z,19.95
2023-02-15T08:16:55.951Z,19.70
2023-02-15T08:19:25.268Z,19.42
2023-02-15T08:21:55.530Z,19.77
2023-02-15T08:24:24.601Z,19.70
2023-02-15T08:26:52.640Z,20.83
2023-02-15T08:29:25.065Z,18.75
2023-02-15T08:31:55.673Z,20.00
2023-02-15T08:34:22.775Z,21.38
2023-02-15T08:36:49.744Z,21.77
2023-02-15T08:39:16.932Z,21.92
2023-02-15T08:41:46.032Z,22.33
2023-02-15T08:44:13.357Z,22.02
2023-02-15T08:46:42.601Z,23.65
2023-02-15T08:49:12.636Z,22.45
2023-02-15T08:51:39.738Z,22.48
2023-02-15T08:54:10.361Z,23.10
2023-02-15T08:56:39.321Z,26.77
2023-02-15T08:59:12.415Z,26.48
2023-02-15T09:01:39.626Z,26.90
2023-02-15T09:04:09.802Z,22.88
2023-02-15T09:06:38.462Z,22.23
2023-02-15T09:09:05.965Z,24.67
2023-02-15T09:11:36.631Z,22.83
2023-02-15T09:14:10.031Z,22.13
2023-02-15T09:16:38.797Z,21.27
2023-02-15T09:19:06.996Z,22.65
2023-02-15T09:21:36.711Z,20.58
2023-02-15T09:24:07.311Z,22.85
2023-02-15T09:26:37.023Z,21.40
2023-02-15T09:29:04.909Z,19.77
2023-02-15T09:31:35.071Z,19.85
2023-02-15T09:34:02.732Z,18.83
2023-02-15T09:36:36.001Z,20.50
2023-02-15T09:39:11.141Z,18.52
2023-02-15T09:41:44.205Z,19.90
2023-02-15T09:44:41.074Z,20.83
2023-02-15T09:47:25.819Z,21.77
2023-02-15T09:50:30.076Z,21.23
2023-02-15T09:53:35.319Z,21.45
2023-02-15T09:56:08.196Z,21.75
2023-02-15T09:59:06.042Z,21.83
2023-02-15T10:02:14.389Z,19.35
2023-02-15T10:04:50.728Z,20.75
2023-02-15T10:07:38.401Z,21.00
2023-02-15T10:10:24.319Z,21.90
2023-02-15T10:12:58.940Z,22.20
2023-02-15T10:15:44.652Z,22.02
2023-02-15T10:18:30.140Z,21.42
2023-02-15T10:21:28.284Z,21.83
2023-02-15T10:24:26.716Z,21.23
2023-02-15T10:27:03.701Z,21.13
2023-02-15T10:29:39.399Z,21.83
2023-02-15T10:32:24.512Z,21.65
2023-02-15T10:35:06.432Z,22.08
2023-02-15T10:37:48.157Z,23.02
2023-02-15T10:40:37.940Z,22.77
2023-02-15T10:43:31.458Z,22.80
2023-02-15T10:46:31.062Z,23.42
2023-02-15T10:49:28.015Z,22.52
2023-02-15T10:52:24.283Z,24.02
2023-02-15T10:55:15.914Z,26.52
2023-02-15T10:58:23.565Z,24.08
2023-02-15T11:01:05.851Z,23.58
2023-02-15T11:04:09.304Z,24.80
2023-02-15T11:06:40.525Z,24.00
2023-02-15T11:09:13.988Z,22.55
2023-02-15T11:11:45.823Z,22.88
2023-02-15T11:14:32.975Z,23.88
2023-02-15T11:17:18.304Z,24.23
2023-02-15T11:19:58.201Z,21.70
2023-02-15T11:22:25.715Z,21.05
2023-02-15T11:24:53.147Z,22.40
2023-02-15T11:27:33.832Z,22.38
2023-02-15T11:30:13.554Z,24.83
2023-02-15T11:32:51.148Z,24.67
2023-02-15T11:35:27.570Z,22.83
2023-02-15T11:38:06.308Z,24.52
2023-02-15T11:40:50.350Z,22.45
2023-02-15T11:43:44.097Z,22.30
2023-02-15T11:46:13.371Z,23.83
2023-02-15T11:48:40.728Z,24.83
2023-02-15T11:51:14.669Z,24.05
2023-02-15T11:53:41.629Z,22.88
2023-02-15T11:56:18.404Z,24.75
2023-02-15T11:59:08.256Z,22.90
2023-02-15T12:01:40.967Z,25.95
2023-02-15T12:04:11.665Z,25.38
2023-02-15T12:06:45.348Z,25.75
2023-02-15T12:09:35.806Z,33.50
2023-02-15T12:12:36.179Z,26.20
2023-02-15T12:15:06.194Z,26.73
2023-02-15T12:17:53.212Z,25.23
2023-02-15T12:20:20.142Z,26.17
2023-02-15T12:23:04.634Z,26.88
2023-02-15T12:25:40.499Z,26.15
2023-02-15T12:30:48.675Z,26.60
2023-02-15T12:33:26.339Z,27.27
2023-02-15T12:36:19.995Z,27.30
2023-02-15T12:39:07.108Z,25.48
2023-02-15T12:41:35.251Z,25.90
2023-02-15T12:44:20.731Z,26.38
2023-02-15T12:46:59.087Z,27.95
2023-02-15T12:49:27.274Z,26.75
2023-02-15T12:51:56.263Z,26.90
2023-02-15T12:54:30.747Z,27.73
2023-02-15T12:56:59.010Z,26.83
2023-02-15T12:59:26.653Z,28.98
2023-02-15T13:01:57.085Z,27.45
2023-02-15T13:04:29.421Z,27.88
2023-02-15T13:07:00.579Z,28.60
2023-02-15T13:09:39.454Z,27.38
2023-02-15T13:12:24.443Z,29.92
2023-02-15T13:14:53.739Z,29.80
2023-02-15T13:17:30.351Z,32.55
2023-02-15T13:20:03.518Z,35.85
2023-02-15T13:22:43.209Z,35.17
2023-02-15T13:25:20.357Z,32.00
2023-02-15T13:27:53.477Z,31.83
2023-02-15T13:30:33.569Z,34.78
2023-02-15T13:33:05.784Z,37.70
2023-02-15T13:35:45.587Z,34.72
2023-02-15T13:38:21.460Z,38.13
2023-02-15T13:41:04.963Z,37.83
2023-02-15T13:43:59.808Z,37.97
2023-02-15T13:46:33.428Z,38.20
2023-02-15T13:49:25.185Z,41.15
2023-02-15T13:52:04.324Z,41.58
2023-02-15T13:55:28.855Z,43.72
2023-02-15T13:58:08.038Z,46.97
2023-02-15T14:00:45.850Z,45.83
2023-02-15T14:03:27.789Z,61.03
2023-02-15T14:06:20.346Z,63.80
2023-02-15T14:09:18.278Z,67.97
2023-02-15T14:11:57.442Z,66.40
2023-02-15T14:14:24.367Z,65.00
2023-02-15T14:17:22.551Z,68.10
2023-02-15T14:19:55.264Z,67.03
2023-02-15T14:22:48.503Z,66.03
2023-02-15T14:25:27.148Z,67.20
2023-02-15T14:28:18.446Z,66.85
2023-02-15T14:30:51.548Z,66.47
2023-02-15T14:33:36.106Z,67.97
2023-02-15T14:36:07.417Z,65.38
2023-02-15T14:39:00.450Z,65.50
2023-02-15T14:41:45.435Z,66.47
2023-02-15T14:44:31.077Z,62.58
2023-02-15T14:47:28.172Z,64.25
2023-02-15T14:49:55.322Z,64.65
2023-02-15T14:52:22.320Z,60.72
2023-02-15T14:54:49.419Z,61.70
2023-02-15T14:57:16.303Z,60.85
2023-02-15T14:59:53.817Z,59.72
2023-02-15T15:02:27.580Z,59.22
2023-02-15T15:04:54.462Z,61.42
2023-02-15T15:07:36.748Z,61.35
2023-02-15T15:10:03.632Z,61.10
2023-02-15T15:12:33.508Z,57.97
2023-02-15T15:15:02.066Z,60.92
2023-02-15T15:17:35.193Z,59.88
2023-02-15T15:20:03.762Z,61.22
2023-02-15T15:22:32.932Z,63.20
2023-02-15T15:25:05.111Z,61.63
2023-02-15T15:27:55.054Z,61.97
2023-02-15T15:30:22.010Z,58.42
2023-02-15T15:32:54.988Z,60.03
2023-02-15T15:35:49.803Z,59.20
2023-02-15T15:38:57.971Z,59.22
2023-02-15T15:41:43.357Z,58.80
2023-02-15T15:44:29.982Z,56.45
2023-02-15T15:47:02.949Z,56.55
2023-02-15T15:49:33.607Z,58.72
2023-02-15T15:52:14.635Z,58.25
2023-02-15T15:54:42.654Z,59.05
2023-02-15T15:57:29.657Z,58.08
2023-02-15T16:00:00.565Z,58.95
2023-02-15T16:02:28.325Z,57.47
2023-02-15T16:04:55.340Z,55.90
2023-02-15T16:07:27.073Z,55.70
2023-02-15T16:10:03.977Z,57.50
2023-02-15T16:12:39.337Z,55.88
2023-02-15T16:15:17.232Z,54.47
2023-02-15T16:17:48.524Z,54.08
2023-02-15T16:20:23.325Z,55.72
2023-02-15T16:23:13.510Z,57.00
2023-02-15T16:25:58.884Z,58.53
2023-02-15T16:28:25.949Z,57.25
2023-02-15T16:31:13.639Z,54.17
2023-02-15T16:33:42.601Z,54.33
2023-02-15T16:36:27.387Z,54.63
2023-02-15T16:38:54.343Z,42.20
2023-02-15T16:41:31.059Z,40.33
2023-02-15T16:44:08.703Z,42.08
2023-02-15T16:46:42.513Z,52.95
2023-02-15T16:49:22.738Z,37.63
2023-02-15T16:52:02.035Z,37.58
2023-02-15T16:54:30.891Z,53.25
2023-02-15T16:56:58.532Z,39.72
2023-02-15T16:59:48.769Z,54.33
2023-02-15T17:02:40.521Z,40.85
2023-02-15T17:05:18.474Z,54.70
2023-02-15T17:08:05.655Z,41.22
2023-02-15T17:10:37.296Z,61.13
2023-02-15T17:13:15.203Z,74.60
2023-02-15T17:16:07.380Z,53.08
2023-02-15T17:18:46.026Z,50.70
2023-02-15T17:21:27.684Z,41.55
2023-02-15T17:24:01.257Z,46.35
2023-02-15T17:26:32.376Z,41.25
2023-02-15T17:29:37.573Z,38.95
2023-02-15T17:32:06.417Z,37.30
2023-02-15T17:34:44.417Z,39.70
2023-02-15T17:37:28.703Z,37.53
2023-02-15T17:39:57.445Z,42.20
2023-02-15T17:42:24.416Z,39.90
2023-02-15T17:44:51.481Z,39.13
2023-02-15T17:47:22.081Z,41.63
2023-02-15T17:49:52.597Z,39.95
2023-02-15T17:52:19.809Z,37.67
2023-02-15T17:55:05.380Z,37.45
2023-02-15T17:57:32.599Z,39.72
2023-02-15T18:00:18.254Z,37.00
2023-02-15T18:03:04.906Z,36.40
2023-02-15T18:05:50.706Z,37.47
2023-02-15T18:08:42.049Z,38.60
2023-02-15T18:11:29.181Z,38.92
2023-02-15T18:14:01.200Z,39.15
2023-02-15T18:16:33.263Z,38.17
2023-02-15T18:19:00.926Z,36.22
2023-02-15T18:21:27.874Z,37.47
2023-02-15T18:23:55.602Z,36.30
2023-02-15T18:26:24.922Z,36.58
2023-02-15T18:28:52.558Z,37.75
2023-02-15T18:31:20.792Z,40.85
2023-02-15T18:33:50.617Z,38.28
2023-02-15T18:36:32.658Z,37.38
2023-02-15T18:39:08.511Z,36.97
2023-02-15T18:41:35.928Z,39.10
2023-02-15T18:44:02.861Z,38.03
2023-02-15T18:46:29.873Z,38.35
2023-02-15T18:48:56.796Z,39.63
2023-02-15T18:51:24.202Z,38.22
2023-02-15T18:53:52.940Z,38.72
2023-02-15T18:56:22.444Z,37.47
2023-02-15T18:58:49.588Z,36.47
2023-02-15T19:01:19.561Z,40.67
2023-02-15T19:03:48.790Z,39.90
2023-02-15T19:06:19.089Z,39.97
2023-02-15T19:08:48.875Z,37.97
2023-02-15T19:11:25.670Z,39.35
2023-02-15T19:13:53.899Z,37.13
2023-02-15T19:16:27.402Z,40.72
2023-02-15T19:18:54.646Z,37.38
2023-02-15T19:21:22.548Z,38.67
2023-02-15T19:23:55.329Z,41.25
2023-02-15T19:26:23.092Z,38.35
2023-02-15T19:28:51.126Z,39.25
2023-02-15T19:31:18.317Z,37.28
2023-02-15T19:33:45.897Z,40.63
2023-02-15T19:36:18.295Z,39.17
2023-02-15T19:38:50.410Z,40.28
2023-02-15T19:41:30.813Z,37.95
2023-02-15T19:43:59.064Z,39.45
2023-02-15T19:46:26.533Z,41.80
2023-02-15T19:48:54.139Z,39.47
2023-02-15T19:51:23.271Z,40.22
2023-02-15T19:53:51.853Z,38.03
2023-02-15T19:56:25.026Z,39.17
2023-02-15T19:58:52.305Z,39.30
2023-02-15T20:01:20.222Z,41.33
2023-02-15T20:03:47.337Z,41.22
2023-02-15T20:06:15.606Z,38.85
2023-02-15T20:08:43.966Z,40.63
2023-02-15T20:11:12.908Z,40.97
2023-02-15T20:13:40.598Z,40.47
2023-02-15T20:16:10.626Z,40.85
2023-02-15T20:18:38.456Z,40.90
2023-02-15T20:21:11.055Z,40.30
2023-02-15T20:23:38.091Z,40.15
2023-02-15T20:26:25.120Z,40.42
2023-02-15T20:28:52.602Z,41.13
2023-02-15T20:31:21.579Z,43.72
2023-02-15T20:33:49.724Z,39.10
2023-02-15T20:36:21.165Z,42.13
2023-02-15T20:38:49.002Z,40.03
2023-02-15T20:41:39.141Z,39.65
2023-02-15T20:44:27.026Z,40.65
2023-02-15T20:46:56.767Z,42.05
2023-02-15T20:49:25.660Z,46.25
2023-02-15T20:51:54.534Z,44.15
2023-02-15T20:54:24.021Z,42.53
2023-02-15T20:56:52.042Z,44.22
2023-02-15T20:59:20.501Z,41.22
2023-02-15T21:01:48.389Z,42.15
2023-02-15T21:04:31.430Z,41.20
2023-02-15T21:06:59.878Z,41.60
2023-02-15T21:09:27.248Z,43.47
2023-02-15T21:11:56.479Z,45.25
2023-02-15T21:14:26.357Z,42.42
2023-02-15T21:16:53.383Z,41.78
2023-02-15T21:19:22.499Z,43.03
2023-02-15T21:21:52.400Z,44.05
2023-02-15T21:24:27.758Z,42.47
2023-02-15T21:26:56.121Z,42.88
2023-02-15T21:29:26.023Z,42.05
2023-02-15T21:31:53.164Z,42.38
2023-02-15T21:34:21.102Z,41.33
2023-02-15T21:36:50.700Z,42.55
2023-02-15T21:39:32.110Z,46.33
2023-02-15T21:42:17.773Z,41.72
2023-02-15T21:45:03.086Z,39.42
2023-02-15T21:47:50.155Z,41.33
2023-02-15T21:50:41.406Z,41.30
2023-02-15T21:53:19.832Z,39.83
2023-02-15T21:55:46.810Z,43.00
2023-02-15T21:58:21.060Z,42.22
2023-02-15T22:00:48.949Z,43.10
2023-02-15T22:03:16.056Z,45.25
2023-02-15T22:05:43.083Z,41.78
2023-02-15T22:08:14.230Z,44.70
2023-02-15T22:10:42.167Z,49.35
2023-02-15T22:13:13.661Z,46.90
2023-02-15T22:15:41.870Z,45.72
2023-02-15T22:18:23.718Z,46.88
2023-02-15T22:20:51.587Z,47.78
2023-02-15T22:23:19.048Z,48.05
2023-02-15T22:25:58.089Z,45.95
2023-02-15T22:28:43.386Z,48.80
2023-02-15T22:31:14.202Z,47.10
2023-02-15T22:33:41.484Z,49.10
2023-02-15T22:36:22.751Z,48.72
2023-02-15T22:38:49.778Z,47.17
2023-02-15T22:41:17.854Z,46.55
2023-02-15T22:43:46.359Z,46.38
2023-02-15T22:46:22.529Z,48.38
2023-02-15T22:48:49.940Z,48.13
2023-02-15T22:51:22.018Z,47.78
2023-02-15T22:53:51.763Z,47.03
2023-02-15T22:56:31.747Z,47.03
2023-02-15T22:59:05.851Z,46.47
2023-02-15T23:01:35.402Z,47.33
2023-02-15T23:04:03.931Z,44.80
2023-02-15T23:06:32.067Z,46.13
2023-02-15T23:09:00.690Z,47.83
2023-02-15T23:11:28.060Z,46.88
2023-02-15T23:13:55.371Z,45.20
2023-02-15T23:16:22.374Z,43.72
2023-02-15T23:18:50.133Z,45.83
2023-02-15T23:21:21.440Z,46.95
2023-02-15T23:23:50.884Z,45.58
2023-02-15T23:26:22.079Z,43.22
2023-02-15T23:28:50.499Z,43.22
2023-02-15T23:31:23.093Z,44.08
2023-02-15T23:33:52.530Z,44.58
2023-02-15T23:36:34.833Z,47.70
2023-02-15T23:39:56.185Z,45.47
2023-02-15T23:42:31.912Z,44.28
2023-02-15T23:45:02.211Z,43.75
2023-02-15T23:47:51.762Z,43.40
2023-02-15T23:50:22.038Z,42.05
2023-02-15T23:52:50.487Z,41.78
2023-02-15T23:55:18.128Z,41.50
2023-02-15T23:57:45.559Z,42.80
